Time;durP1;ratioP1;P1;durP2;ratioP2;P2;SDS_P1;SDS_P2;PMS_P1;PMS_P2;Temp;Humidity;BMP_temperature;BMP_pressure;BME280_temperature;BME280_humidity;BME280_pressure;Samples;Min_cycle;Max_cycle;Signal;HPM_P1;HPM_P2
2022/03/10 00:00:54;;;;;;;48.07;19.77;;;0.90;74.70;;;;;;5042604;28;21044;-46
2022/03/10 00:03:21;;;;;;;40.77;20.63;;;0.90;74.90;;;;;;5044927;28;21065;-47
2022/03/10 00:05:47;;;;;;;40.30;19.77;;;0.80;75.30;;;;;;5043565;28;20519;-47
2022/03/10 00:08:14;;;;;;;36.37;19.00;;;0.80;75.30;;;;;;5044844;28;20479;-47
2022/03/10 00:10:41;;;;;;;39.77;18.80;;;0.90;75.00;;;;;;5046259;28;20474;-46
2022/03/10 00:13:07;;;;;;;34.13;17.00;;;0.90;75.10;;;;;;5058083;28;20614;-47
2022/03/10 00:15:37;;;;;;;47.23;22.00;;;0.90;75.10;;;;;;5040962;28;20869;-47
2022/03/10 00:18:04;;;;;;;41.07;21.47;;;0.80;75.00;;;;;;5041967;28;20484;-46
2022/03/10 00:20:31;;;;;;;63.30;21.00;;;0.80;75.00;;;;;;5042220;28;20482;-46
2022/03/10 00:22:58;;;;;;;40.80;20.03;;;0.80;75.40;;;;;;5045821;28;20488;-45
2022/03/10 00:25:25;;;;;;;43.10;19.87;;;0.80;75.30;;;;;;5041577;28;20681;-46
2022/03/10 00:27:52;;;;;;;63.13;21.67;;;0.80;75.10;;;;;;5035284;28;20489;-47
2022/03/10 00:30:20;;;;;;;42.40;21.97;;;0.80;75.10;;;;;;5047316;28;20477;-46
2022/03/10 00:32:49;;;;;;;38.87;19.90;;;0.50;75.10;;;;;;5039024;28;20972;-47
2022/03/10 00:35:18;;;;;;;48.53;21.63;;;0.30;75.70;;;;;;5037830;28;20491;-48
2022/03/10 00:37:45;;;;;;;36.33;18.30;;;0.40;75.70;;;;;;5046053;28;20489;-46
2022/03/10 00:40:13;;;;;;;38.90;19.00;;;0.40;75.50;;;;;;5028604;28;20633;-46
2022/03/10 00:42:41;;;;;;;44.83;19.07;;;0.40;75.30;;;;;;5040681;28;20506;-46
2022/03/10 00:45:08;;;;;;;38.77;20.13;;;0.40;75.60;;;;;;5043219;28;20540;-46
2022/03/10 00:47:36;;;;;;;45.60;21.00;;;0.40;75.50;;;;;;5043393;28;20992;-47
2022/03/10 00:50:04;;;;;;;44.13;18.67;;;0.40;75.00;;;;;;5039196;28;20518;-47
2022/03/10 00:52:31;;;;;;;39.07;20.20;;;0.50;75.40;;;;;;5041827;28;20482;-47
2022/03/10 00:54:58;;;;;;;36.97;20.40;;;0.50;75.00;;;;;;5042508;28;20488;-47
2022/03/10 00:57:25;;;;;;;49.40;22.03;;;0.50;74.60;;;;;;5041596;28;20503;-46
2022/03/10 00:59:52;;;;;;;42.57;19.63;;;0.50;74.80;;;;;;5034067;28;20480;-46
2022/03/10 01:02:19;;;;;;;36.17;19.47;;;0.50;74.70;;;;;;5042651;28;20460;-47
2022/03/10 01:04:45;;;;;;;51.90;21.83;;;0.50;75.00;;;;;;5055123;28;20507;-45
2022/03/10 01:07:13;;;;;;;44.47;21.27;;;0.40;75.30;;;;;;5043385;28;20480;-45
2022/03/10 01:09:40;;;;;;;43.17;19.90;;;0.30;75.40;;;;;;5033561;28;20481;-46
2022/03/10 01:12:07;;;;;;;55.53;21.50;;;0.30;74.80;;;;;;5040775;28;23038;-46
2022/03/10 01:14:34;;;;;;;42.00;21.00;;;0.30;74.60;;;;;;5041977;28;21073;-46
2022/03/10 01:17:01;;;;;;;53.27;24.03;;;0.30;74.50;;;;;;5041627;28;20481;-45
2022/03/10 01:19:29;;;;;;;54.33;20.50;;;0.30;75.50;;;;;;5039931;28;20495;-46
2022/03/10 01:21:56;;;;;;;41.10;20.10;;;0.30;75.70;;;;;;5038933;28;20918;-46
2022/03/10 01:24:24;;;;;;;47.17;23.07;;;0.30;75.50;;;;;;5041768;28;20496;-47
2022/03/10 01:26:51;;;;;;;61.43;21.17;;;0.30;74.70;;;;;;5040282;28;20494;-46
2022/03/10 01:29:17;;;;;;;47.90;22.47;;;0.20;75.00;;;;;;5036779;28;20607;-51
2022/03/10 01:31:44;;;;;;;41.40;22.10;;;0.00;75.70;;;;;;5042328;28;20489;-45
2022/03/10 01:34:11;;;;;;;50.93;21.10;;;-0.20;77.30;;;;;;5039915;28;20481;-45
2022/03/10 01:36:38;;;;;;;39.30;20.30;;;-0.20;77.50;;;;;;5038861;28;20477;-45
2022/03/10 01:39:05;;;;;;;42.30;20.10;;;-0.10;77.20;;;;;;5039394;28;20489;-45
2022/03/10 01:41:33;;;;;;;52.13;20.23;;;-0.10;76.40;;;;;;5038510;28;20475;-47
2022/03/10 01:44:02;;;;;;;38.07;21.93;;;-0.10;75.70;;;;;;5039586;28;20908;-45
2022/03/10 01:46:29;;;;;;;37.93;19.10;;;-0.20;76.30;;;;;;5041874;28;20835;-45
2022/03/10 01:49:05;;;;;;;43.23;21.43;;;-0.50;77.70;;;;;;5038677;28;20967;-45
2022/03/10 01:51:34;;;;;;;42.27;20.40;;;-0.50;78.40;;;;;;5027669;28;20487;-45
2022/03/10 01:54:01;;;;;;;66.37;21.93;;;-0.60;79.40;;;;;;5041435;28;20479;-46
2022/03/10 01:56:28;;;;;;;41.00;20.43;;;-0.70;79.60;;;;;;5039788;28;20490;-45
2022/03/10 01:58:56;;;;;;;46.03;21.07;;;-0.60;79.20;;;;;;5038839;28;20481;-45
2022/03/10 02:01:24;;;;;;;49.53;20.87;;;-0.60;78.00;;;;;;5039134;28;20531;-46
2022/03/10 02:03:51;;;;;;;44.30;21.67;;;-0.60;77.40;;;;;;5039600;28;20577;-46
2022/03/10 02:06:18;;;;;;;47.43;24.70;;;-0.60;77.10;;;;;;5040356;28;20494;-46
2022/03/10 02:11:29;;;;;;;36.93;19.73;;;-0.50;77.10;;;;;;5038672;28;20516;-45
2022/03/10 02:13:58;;;;;;;45.30;21.30;;;-0.40;77.10;;;;;;5040743;28;20481;-45
2022/03/10 02:19:17;;;;;;;56.83;21.07;;;-0.40;76.50;;;;;;5011350;28;20523;-46
2022/03/10 02:21:45;;;;;;;46.07;19.37;;;-0.50;76.50;;;;;;5038932;28;20492;-46
2022/03/10 02:24:13;;;;;;;40.50;20.80;;;-0.50;76.60;;;;;;5038712;28;20571;-48
2022/03/10 02:26:40;;;;;;;49.87;22.73;;;-0.50;76.20;;;;;;5037641;28;20516;-46
2022/03/10 02:29:06;;;;;;;46.13;20.53;;;-0.40;76.10;;;;;;5038802;28;20493;-46
2022/03/10 02:31:33;;;;;;;42.97;21.53;;;-0.40;75.70;;;;;;5033797;28;20477;-46
2022/03/10 02:34:00;;;;;;;52.23;20.60;;;-0.40;75.30;;;;;;5039990;28;20485;-46
2022/03/10 02:36:26;;;;;;;35.17;19.13;;;-0.40;75.10;;;;;;5042726;28;20847;-47
2022/03/10 02:38:53;;;;;;;40.47;21.37;;;-0.40;74.90;;;;;;5038401;28;20835;-46
2022/03/10 02:41:21;;;;;;;49.43;20.53;;;-0.40;74.40;;;;;;5027902;28;20488;-46
2022/03/10 02:43:48;;;;;;;39.23;20.13;;;-0.40;74.40;;;;;;5046934;28;20494;-46
2022/03/10 02:46:14;;;;;;;46.33;21.43;;;-0.40;74.90;;;;;;5041478;28;20542;-46
2022/03/10 02:48:41;;;;;;;52.53;21.87;;;-0.40;75.40;;;;;;5041214;28;20474;-47
2022/03/10 02:51:08;;;;;;;47.33;20.80;;;-0.40;75.50;;;;;;5041909;28;20480;-47
2022/03/10 02:53:35;;;;;;;45.43;22.30;;;-0.50;75.30;;;;;;5040665;28;20480;-47
2022/03/10 02:56:01;;;;;;;47.53;21.70;;;-0.50;75.50;;;;;;5041214;28;20502;-47
2022/03/10 02:58:29;;;;;;;40.03;19.20;;;-0.60;75.30;;;;;;5043046;28;20492;-47
2022/03/10 03:00:56;;;;;;;41.27;21.43;;;-0.60;75.50;;;;;;5045390;28;20485;-47
2022/03/10 03:03:23;;;;;;;52.53;23.33;;;-0.80;76.90;;;;;;5045730;28;20484;-46
2022/03/10 03:05:49;;;;;;;48.00;23.67;;;-0.80;76.90;;;;;;5044678;28;20497;-46
2022/03/10 03:08:16;;;;;;;39.50;20.10;;;-0.80;76.70;;;;;;5046693;28;20965;-46
2022/03/10 03:10:43;;;;;;;48.77;21.10;;;-0.80;76.50;;;;;;5055368;28;20492;-46
2022/03/10 03:13:09;;;;;;;41.63;22.30;;;-0.80;75.90;;;;;;5061514;28;20492;-46
2022/03/10 03:15:38;;;;;;;49.83;22.47;;;-1.00;76.60;;;;;;5060847;28;20548;-46
2022/03/10 03:18:05;;;;;;;48.87;19.97;;;-1.20;78.20;;;;;;5066684;28;20565;-47
2022/03/10 03:20:31;;;;;;;48.90;22.63;;;-1.20;78.60;;;;;;5066151;28;20558;-49
2022/03/10 03:22:58;;;;;;;40.20;18.97;;;-1.20;78.30;;;;;;5061658;28;20530;-48
2022/03/10 03:25:25;;;;;;;51.97;20.93;;;-1.10;77.80;;;;;;5066755;28;20483;-47
2022/03/10 03:27:52;;;;;;;55.33;25.87;;;-1.00;77.50;;;;;;5064355;28;20487;-47
2022/03/10 03:30:18;;;;;;;46.67;23.17;;;-1.00;77.10;;;;;;5066153;28;20497;-46
2022/03/10 03:32:47;;;;;;;51.53;22.90;;;-1.00;76.70;;;;;;5065232;28;20475;-45
2022/03/10 03:35:15;;;;;;;44.33;22.40;;;-1.00;76.50;;;;;;5062962;28;20505;-45
2022/03/10 03:37:41;;;;;;;41.67;20.80;;;-1.00;76.00;;;;;;5051031;28;20480;-46
2022/03/10 03:40:10;;;;;;;52.50;22.20;;;-1.10;76.70;;;;;;5045959;28;20500;-46
2022/03/10 03:42:37;;;;;;;42.63;19.60;;;-1.20;78.10;;;;;;5047571;28;20599;-46
2022/03/10 03:45:04;;;;;;;48.43;21.33;;;-1.40;78.90;;;;;;5044889;28;20519;-48
2022/03/10 03:47:31;;;;;;;60.90;25.87;;;-1.50;79.70;;;;;;5044388;28;20484;-46
2022/03/10 03:49:59;;;;;;;44.43;22.00;;;-1.60;80.00;;;;;;5046271;28;20527;-46
2022/03/10 03:52:26;;;;;;;42.33;19.57;;;-1.50;80.00;;;;;;5044866;28;20523;-46
2022/03/10 03:54:52;;;;;;;50.23;20.80;;;-1.40;79.30;;;;;;5043482;28;20546;-46
2022/03/10 03:57:19;;;;;;;40.03;19.70;;;-1.30;78.40;;;;;;5044395;28;20485;-46
2022/03/10 03:59:46;;;;;;;43.70;20.97;;;-1.40;77.80;;;;;;5043343;28;20485;-47
2022/03/10 04:02:13;;;;;;;53.30;21.90;;;-1.60;78.50;;;;;;5042667;28;20493;-47
2022/03/10 04:04:39;;;;;;;48.63;21.53;;;-1.70;79.40;;;;;;5044290;28;20494;-47
2022/03/10 04:07:08;;;;;;;41.33;19.60;;;-1.70;79.90;;;;;;5042325;28;20477;-47
2022/03/10 04:09:34;;;;;;;54.47;20.50;;;-1.60;79.40;;;;;;5043637;28;20480;-47
2022/03/10 04:12:02;;;;;;;43.07;22.17;;;-1.50;78.80;;;;;;5035408;28;20484;-46
2022/03/10 04:14:29;;;;;;;38.47;21.17;;;-1.40;78.60;;;;;;5042632;28;20485;-46
2022/03/10 04:16:56;;;;;;;50.70;21.80;;;-1.40;78.00;;;;;;5057711;28;20471;-46
2022/03/10 04:19:22;;;;;;;47.13;21.27;;;-1.30;77.90;;;;;;5072515;28;20476;-46
2022/03/10 04:21:49;;;;;;;45.07;21.10;;;-1.30;77.50;;;;;;5058834;28;20494;-46
2022/03/10 04:24:18;;;;;;;53.33;22.57;;;-1.20;77.20;;;;;;5065776;28;20543;-47
2022/03/10 04:26:44;;;;;;;40.00;21.13;;;-1.20;76.90;;;;;;5057501;28;20640;-46
2022/03/10 04:29:11;;;;;;;37.07;18.57;;;-1.20;76.80;;;;;;5049629;28;20479;-46
2022/03/10 04:31:38;;;;;;;53.57;20.33;;;-1.30;76.30;;;;;;5043251;28;21052;-47
2022/03/10 04:34:05;;;;;;;49.63;21.73;;;-1.30;76.70;;;;;;5043382;28;20999;-46
2022/03/10 04:36:32;;;;;;;39.53;20.37;;;-1.30;76.50;;;;;;5043786;28;20539;-48
2022/03/10 04:38:59;;;;;;;51.37;20.70;;;-1.30;76.10;;;;;;5043210;28;21270;-44
2022/03/10 04:41:27;;;;;;;44.87;20.97;;;-1.30;75.90;;;;;;5042703;28;20505;-45
2022/03/10 04:43:54;;;;;;;39.53;18.70;;;-1.30;76.10;;;;;;5043902;28;20491;-45
2022/03/10 04:46:22;;;;;;;57.33;22.70;;;-1.30;76.70;;;;;;5053516;28;20490;-45
2022/03/10 04:48:49;;;;;;;38.40;19.07;;;-1.30;76.90;;;;;;5051870;28;21075;-44
2022/03/10 04:51:15;;;;;;;40.70;18.10;;;-1.30;76.90;;;;;;5052707;28;20993;-45
2022/03/10 04:53:42;;;;;;;55.77;22.23;;;-1.30;76.70;;;;;;5055029;28;20977;-46
2022/03/10 04:56:09;;;;;;;32.63;17.50;;;-1.20;76.70;;;;;;5039681;28;20481;-46
2022/03/10 04:58:37;;;;;;;43.37;17.33;;;-1.20;76.40;;;;;;5023579;28;20489;-46
2022/03/10 05:01:03;;;;;;;51.47;19.60;;;-1.20;76.30;;;;;;5040569;28;20493;-47
2022/03/10 05:03:32;;;;;;;38.27;19.10;;;-1.30;76.00;;;;;;5043055;28;20493;-46
2022/03/10 05:06:00;;;;;;;49.17;19.80;;;;;;;;;;5048573;28;20468;-46
2022/03/10 05:08:27;;;;;;;36.70;19.80;;;-1.60;76.90;;;;;;5044900;28;20564;-46
2022/03/10 05:10:53;;;;;;;42.57;18.70;;;-1.60;76.70;;;;;;5041872;28;20480;-46
2022/03/10 05:13:20;;;;;;;37.67;19.20;;;-1.60;76.60;;;;;;5042274;28;20481;-46
2022/03/10 05:15:48;;;;;;;39.07;21.10;;;-1.60;76.80;;;;;;5042505;28;20484;-45
2022/03/10 05:18:15;;;;;;;46.53;19.43;;;-1.50;76.50;;;;;;5024113;28;20541;-46
2022/03/10 05:20:42;;;;;;;38.17;19.00;;;-1.60;76.30;;;;;;5055245;28;20831;-46
2022/03/10 05:23:09;;;;;;;35.63;18.90;;;-1.70;77.20;;;;;;5045437;28;20482;-46
2022/03/10 05:25:37;;;;;;;45.07;20.03;;;-1.90;77.50;;;;;;5045251;28;20490;-47
2022/03/10 05:28:06;;;;;;;35.63;17.10;;;-1.90;78.60;;;;;;5047602;28;20531;-46
2022/03/10 05:30:33;;;;;;;39.40;18.93;;;-1.90;78.40;;;;;;5042916;28;20863;-46
2022/03/10 05:33:01;;;;;;;52.53;19.13;;;-1.80;78.30;;;;;;5043087;28;20483;-45
2022/03/10 05:35:29;;;;;;;42.37;20.53;;;-1.70;78.00;;;;;;5041800;28;20485;-46
2022/03/10 05:37:56;;;;;;;46.10;20.00;;;-1.70;77.90;;;;;;5041471;28;20492;-46
2022/03/10 05:40:23;;;;;;;46.07;21.23;;;-1.70;77.60;;;;;;5043478;28;20541;-46
2022/03/10 05:42:53;;;;;;;55.23;23.20;;;-1.80;77.20;;;;;;5041920;28;20460;-46
2022/03/10 05:45:21;;;;;;;36.80;19.03;;;-1.80;77.30;;;;;;5041838;28;21005;-46
2022/03/10 05:47:48;;;;;;;47.40;20.60;;;-1.80;77.30;;;;;;5042220;28;20897;-46
2022/03/10 05:50:17;;;;;;;60.47;23.40;;;-1.80;77.10;;;;;;5044073;28;20479;-45
2022/03/10 05:52:45;;;;;;;43.03;19.70;;;-1.70;77.10;;;;;;5040800;28;20489;-46
2022/03/10 05:55:13;;;;;;;53.70;22.70;;;-1.70;76.80;;;;;;5042509;28;20487;-46
2022/03/10 05:57:39;;;;;;;49.47;21.50;;;-1.60;76.70;;;;;;5041935;28;21016;-46
2022/03/10 06:00:08;;;;;;;42.40;21.00;;;-1.60;76.50;;;;;;5043265;28;20476;-46
2022/03/10 06:02:35;;;;;;;46.00;22.47;;;-1.60;76.20;;;;;;5041891;28;21053;-46
2022/03/10 06:05:03;;;;;;;52.20;24.20;;;-1.60;75.70;;;;;;5039415;28;20491;-46
2022/03/10 06:07:32;;;;;;;41.90;21.20;;;-1.50;75.70;;;;;;5043214;28;20513;-45
2022/03/10 06:09:59;;;;;;;47.23;22.90;;;-1.50;75.70;;;;;;5027539;28;20477;-45
2022/03/10 06:12:28;;;;;;;54.10;22.80;;;-1.40;75.60;;;;;;5041811;28;20496;-45
2022/03/10 06:14:55;;;;;;;41.70;19.53;;;-1.40;75.70;;;;;;5041871;28;20560;-45
2022/03/10 06:17:22;;;;;;;37.37;21.27;;;-1.40;75.90;;;;;;5041900;28;22458;-46
2022/03/10 06:19:49;;;;;;;44.67;19.80;;;-1.40;75.90;;;;;;5041774;28;20488;-46
2022/03/10 06:22:16;;;;;;;40.23;18.60;;;-1.40;75.80;;;;;;5042421;28;20478;-46
2022/03/10 06:24:45;;;;;;;42.90;20.23;;;;;;;;;;5041592;28;21062;-46
2022/03/10 06:27:12;;;;;;;45.40;21.10;;;-1.40;76.40;;;;;;5043252;28;21011;-46
2022/03/10 06:29:39;;;;;;;37.70;20.43;;;-1.30;76.60;;;;;;5041696;28;20491;-46
2022/03/10 06:32:06;;;;;;;44.30;20.77;;;;;;;;;;5043091;28;20962;-46
2022/03/10 06:34:33;;;;;;;38.17;19.77;;;-1.20;77.30;;;;;;5042238;28;20486;-46
2022/03/10 06:37:01;;;;;;;54.70;19.10;;;-1.20;77.30;;;;;;5045615;28;20475;-46
2022/03/10 06:39:28;;;;;;;43.33;19.97;;;;;;;;;;5067680;28;20495;-45
2022/03/10 06:41:56;;;;;;;46.53;21.70;;;-1.10;76.90;;;;;;5046323;28;21195;-46
2022/03/10 06:44:23;;;;;;;41.00;22.20;;;-1.10;76.90;;;;;;5046729;28;21539;-46
2022/03/10 06:46:49;;;;;;;44.50;21.77;;;-1.10;77.10;;;;;;5043059;28;20484;-45
2022/03/10 06:49:16;;;;;;;57.13;26.10;;;-1.00;77.10;;;;;;5033449;28;20476;-45
2022/03/10 06:51:43;;;;;;;40.33;21.07;;;-1.00;77.10;;;;;;5045357;28;20544;-48
2022/03/10 06:54:10;;;;;;;55.60;26.43;;;-0.90;76.80;;;;;;5044335;28;20920;-45
2022/03/10 06:56:37;;;;;;;43.57;21.90;;;-0.90;76.70;;;;;;5043284;28;20983;-45
2022/03/10 06:59:05;;;;;;;43.27;21.90;;;-0.70;77.00;;;;;;5060533;28;20479;-46
2022/03/10 07:01:32;;;;;;;52.03;26.07;;;0.20;79.80;;;;;;5026145;28;20489;-46
2022/03/10 07:03:59;;;;;;;51.80;25.47;;;1.10;79.80;;;;;;5027003;28;20940;-46
2022/03/10 07:06:26;;;;;;;53.87;26.50;;;2.20;78.90;;;;;;5029695;28;20487;-46
2022/03/10 07:08:53;;;;;;;54.47;27.03;;;3.80;75.90;;;;;;5046199;28;20539;-46
2022/03/10 07:11:20;;;;;;;51.30;26.80;;;4.80;74.30;;;;;;5045606;28;20485;-47
2022/03/10 07:13:47;;;;;;;57.07;27.50;;;5.70;72.70;;;;;;5062600;28;20555;-47
2022/03/10 07:16:16;;;;;;;45.80;25.87;;;7.00;69.90;;;;;;5061592;28;20491;-47
2022/03/10 07:18:42;;;;;;;50.57;26.60;;;7.80;68.90;;;;;;5048338;28;20489;-47
2022/03/10 07:21:09;;;;;;;40.13;22.57;;;8.60;67.20;;;;;;5044843;28;20486;-47
2022/03/10 07:23:36;;;;;;;47.20;26.20;;;9.70;65.40;;;;;;5036475;28;20497;-48
2022/03/10 07:26:02;;;;;;;44.40;23.70;;;10.30;63.60;;;;;;5043037;28;20509;-47
2022/03/10 07:28:30;;;;;;;39.30;24.20;;;11.00;62.70;;;;;;5043795;28;20476;-48
2022/03/10 07:30:57;;;;;;;43.10;24.33;;;11.90;61.70;;;;;;5047938;28;20469;-48
2022/03/10 07:33:25;;;;;;;42.43;24.80;;;12.50;61.00;;;;;;5042863;28;20490;-52
2022/03/10 07:35:52;;;;;;;37.13;23.63;;;13.00;60.00;;;;;;5042195;28;20476;-48
2022/03/10 07:38:19;;;;;;;47.80;24.07;;;13.80;59.30;;;;;;5044274;28;20647;-48
2022/03/10 07:40:45;;;;;;;33.03;23.77;;;14.30;58.30;;;;;;5037060;28;20552;-48
2022/03/10 07:43:12;;;;;;;38.67;24.40;;;14.70;57.80;;;;;;5037349;28;20508;-48
2022/03/10 07:45:39;;;;;;;40.60;25.80;;;15.30;56.30;;;;;;5035742;28;20923;-48
2022/03/10 07:48:06;;;;;;;43.17;25.17;;;15.50;56.40;;;;;;5042155;28;20832;-48
2022/03/10 07:50:34;;;;;;;44.33;26.27;;;15.70;55.10;;;;;;5040103;28;20489;-47
2022/03/10 07:53:01;;;;;;;41.87;23.93;;;16.00;54.90;;;;;;5039140;28;20555;-47
2022/03/10 07:55:27;;;;;;;40.67;24.20;;;16.20;55.70;;;;;;5040264;28;20494;-48
2022/03/10 07:57:54;;;;;;;47.60;26.30;;;16.30;55.00;;;;;;5041826;28;20481;-47
2022/03/10 08:00:21;;;;;;;38.50;24.27;;;16.40;55.50;;;;;;5046858;28;20486;-48
2022/03/10 08:02:48;;;;;;;41.57;25.80;;;16.50;55.80;;;;;;5042491;28;20496;-47
2022/03/10 08:05:14;;;;;;;39.50;24.83;;;16.60;55.00;;;;;;5043052;28;20488;-48
2022/03/10 08:07:42;;;;;;;41.43;25.47;;;16.70;54.50;;;;;;5043208;28;21157;-48
2022/03/10 08:10:10;;;;;;;41.33;24.47;;;16.80;54.90;;;;;;5044303;28;21287;-49
2022/03/10 08:12:37;;;;;;;40.13;26.70;;;16.80;54.60;;;;;;5043141;28;20946;-48
2022/03/10 08:15:05;;;;;;;43.07;26.13;;;;;;;;;;5042577;28;20491;-48
2022/03/10 08:17:32;;;;;;;36.60;24.43;;;16.20;55.00;;;;;;5040860;28;20479;-51
2022/03/10 08:19:59;;;;;;;38.00;24.03;;;15.90;54.90;;;;;;5043599;28;20487;-48
2022/03/10 08:22:26;;;;;;;39.10;23.83;;;15.50;55.70;;;;;;5043820;28;20899;-48
2022/03/10 08:24:54;;;;;;;37.77;24.60;;;15.10;54.90;;;;;;5041892;28;20950;-47
2022/03/10 08:27:20;;;;;;;39.07;24.07;;;14.90;55.30;;;;;;5041406;28;20503;-48
2022/03/10 08:29:47;;;;;;;33.63;21.73;;;14.60;55.60;;;;;;5040499;28;20554;-48
2022/03/10 08:32:15;;;;;;;36.90;23.53;;;14.50;56.20;;;;;;5041947;28;20503;-48
2022/03/10 08:34:41;;;;;;;42.87;24.53;;;14.40;56.50;;;;;;5039362;28;20492;-49
2022/03/10 08:37:08;;;;;;;41.00;24.87;;;14.20;56.60;;;;;;5042780;28;20495;-48
2022/03/10 08:39:35;;;;;;;40.00;24.03;;;14.20;56.90;;;;;;5041719;28;20562;-48
2022/03/10 08:42:04;;;;;;;37.20;23.97;;;14.10;57.40;;;;;;5041450;28;20979;-48
2022/03/10 08:44:31;;;;;;;42.73;22.80;;;14.00;57.00;;;;;;5041765;28;20579;-48
2022/03/10 08:46:57;;;;;;;47.53;25.10;;;13.90;57.90;;;;;;5041570;28;20473;-48
2022/03/10 08:49:24;;;;;;;34.50;23.27;;;13.90;57.30;;;;;;5043144;28;20865;-48
2022/03/10 08:51:51;;;;;;;46.03;25.77;;;13.90;57.80;;;;;;5039548;28;20485;-48
2022/03/10 08:54:17;;;;;;;37.80;22.53;;;13.90;58.00;;;;;;5045379;28;20809;-49
2022/03/10 08:56:44;;;;;;;37.40;23.40;;;13.90;58.00;;;;;;5041755;28;20496;-48
2022/03/10 08:59:12;;;;;;;37.90;24.97;;;13.80;57.90;;;;;;5043734;28;20488;-48
2022/03/10 09:01:39;;;;;;;41.70;23.00;;;13.80;58.00;;;;;;5041539;28;20477;-48
2022/03/10 09:04:06;;;;;;;37.93;23.63;;;13.80;59.00;;;;;;5055562;28;20546;-48
2022/03/10 09:06:33;;;;;;;45.20;24.83;;;13.90;59.90;;;;;;5055835;28;20479;-48
2022/03/10 09:09:00;;;;;;;36.60;22.93;;;13.80;59.70;;;;;;5041391;28;20538;-48
2022/03/10 09:11:27;;;;;;;42.60;25.47;;;13.90;60.00;;;;;;5036187;28;20635;-48
2022/03/10 09:13:54;;;;;;;41.97;22.30;;;14.00;58.80;;;;;;5040948;28;20489;-48
2022/03/10 09:16:23;;;;;;;41.57;24.57;;;14.10;59.50;;;;;;5042621;28;20481;-48
2022/03/10 09:18:50;;;;;;;33.40;22.70;;;14.20;58.80;;;;;;5040905;28;21063;-49
2022/03/10 09:21:17;;;;;;;40.33;24.30;;;14.40;58.60;;;;;;5039526;28;20534;-48
2022/03/10 09:23:44;;;;;;;34.07;22.40;;;14.50;57.30;;;;;;5044733;28;20486;-48
2022/03/10 09:26:11;;;;;;;39.07;23.10;;;14.60;58.90;;;;;;5056203;28;20489;-48
2022/03/10 09:28:37;;;;;;;37.50;22.87;;;14.80;59.00;;;;;;5041069;28;21160;-48
2022/03/10 09:31:04;;;;;;;39.90;23.70;;;15.00;57.90;;;;;;5060042;28;20483;-48
2022/03/10 09:33:32;;;;;;;41.13;24.47;;;15.10;58.50;;;;;;5061937;28;20488;-48
2022/03/10 09:35:59;;;;;;;37.10;23.23;;;15.20;58.20;;;;;;5060939;28;20489;-49
2022/03/10 09:38:25;;;;;;;38.57;24.20;;;15.30;58.70;;;;;;5035729;28;20851;-51
2022/03/10 09:40:54;;;;;;;40.30;22.90;;;15.50;57.20;;;;;;5039454;28;20479;-48
2022/03/10 09:43:22;;;;;;;37.80;22.50;;;15.60;57.80;;;;;;5040867;28;20479;-45
2022/03/10 09:45:50;;;;;;;42.97;25.23;;;15.60;58.10;;;;;;5036164;28;20483;-47
2022/03/10 09:48:17;;;;;;;40.37;23.60;;;15.80;58.00;;;;;;5038502;28;20491;-48
2022/03/10 09:50:46;;;;;;;36.60;22.77;;;16.20;57.50;;;;;;5039518;28;20988;-48
2022/03/10 09:53:13;;;;;;;41.70;24.80;;;16.30;56.40;;;;;;5038210;28;20486;-47
2022/03/10 09:55:40;;;;;;;42.40;25.13;;;16.30;56.70;;;;;;5041262;28;20599;-47
2022/03/10 09:58:07;;;;;;;37.73;24.57;;;16.50;55.80;;;;;;5033683;28;20572;-47
2022/03/10 10:00:34;;;;;;;38.87;23.00;;;16.50;56.40;;;;;;5039031;28;21787;-47
2022/03/10 10:03:00;;;;;;;49.27;26.30;;;16.60;56.80;;;;;;5038897;28;20486;-47
2022/03/10 10:05:28;;;;;;;40.67;25.80;;;16.70;56.00;;;;;;5041171;28;20479;-47
2022/03/10 10:08:05;;;;;;;39.60;23.80;;;16.80;56.50;;;;;;5037756;28;21353;-47
2022/03/10 10:10:34;;;;;;;42.83;23.20;;;17.00;55.40;;;;;;5042646;28;20539;-47
2022/03/10 10:13:05;;;;;;;39.60;24.40;;;17.00;55.30;;;;;;5040125;28;20537;-47
2022/03/10 10:15:34;;;;;;;46.07;25.30;;;17.20;55.40;;;;;;5038774;28;20493;-50
2022/03/10 10:18:01;;;;;;;38.97;23.80;;;17.30;55.70;;;;;;5037097;28;21088;-47
2022/03/10 10:20:31;;;;;;;40.27;23.47;;;17.40;54.70;;;;;;5039063;28;20491;-47
2022/03/10 10:23:17;;;;;;;36.63;23.63;;;17.40;54.20;;;;;;5044283;28;20478;-46
2022/03/10 10:25:52;;;;;;;45.00;24.17;;;17.60;54.80;;;;;;5038345;28;20972;-47
2022/03/10 10:28:27;;;;;;;36.27;22.83;;;17.60;54.50;;;;;;5028875;28;21000;-48
2022/03/10 10:31:00;;;;;;;34.83;21.63;;;17.70;54.90;;;;;;5039651;28;20479;-47
2022/03/10 10:33:29;;;;;;;41.30;24.90;;;17.80;53.60;;;;;;5039222;28;20498;-47
2022/03/10 10:36:16;;;;;;;40.30;23.53;;;17.80;53.60;;;;;;5038693;28;20486;-48
2022/03/10 10:38:46;;;;;;;37.77;26.00;;;17.90;54.40;;;;;;5041942;28;20478;-47
2022/03/10 10:41:21;;;;;;;38.10;23.00;;;18.00;53.40;;;;;;5040641;28;20885;-47
2022/03/10 10:43:49;;;;;;;40.90;25.37;;;18.10;53.50;;;;;;5026678;28;20503;-47
2022/03/10 10:46:24;;;;;;;38.50;25.00;;;18.20;54.90;;;;;;5039726;28;20570;-47
2022/03/10 10:48:51;;;;;;;37.07;23.70;;;18.30;53.40;;;;;;5031303;28;20479;-47
2022/03/10 10:51:34;;;;;;;35.40;22.87;;;18.40;53.30;;;;;;5039335;28;20468;-47
2022/03/10 10:54:04;;;;;;;41.90;25.30;;;18.50;52.90;;;;;;5035920;28;20742;-47
2022/03/10 10:56:33;;;;;;;32.57;21.90;;;18.50;53.50;;;;;;5038255;28;20495;-47
2022/03/10 10:59:01;;;;;;;40.87;24.27;;;18.60;53.50;;;;;;5034256;28;20476;-47
2022/03/10 11:01:33;;;;;;;43.17;25.73;;;18.60;52.10;;;;;;5029433;28;20483;-48
2022/03/10 11:04:01;;;;;;;40.20;24.93;;;18.70;52.20;;;;;;5052998;28;21037;-48
2022/03/10 11:06:28;;;;;;;37.20;25.77;;;19.00;53.00;;;;;;5038083;28;20480;-47
2022/03/10 11:08:55;;;;;;;40.63;25.30;;;19.00;53.80;;;;;;5037214;28;20488;-47
2022/03/10 11:11:23;;;;;;;41.20;24.47;;;19.10;51.60;;;;;;5037223;28;20479;-49
2022/03/10 11:13:51;;;;;;;33.93;21.77;;;19.20;52.30;;;;;;5042424;28;20486;-46
2022/03/10 11:16:19;;;;;;;38.37;23.13;;;19.30;51.40;;;;;;5036485;28;20483;-48
2022/03/10 11:18:51;;;;;;;38.43;24.37;;;19.30;51.70;;;;;;5042966;28;20513;-47
2022/03/10 11:21:59;;;;;;;39.80;23.87;;;19.30;52.20;;;;;;5039920;28;20486;-48
2022/03/10 11:24:53;;;;;;;32.23;22.03;;;19.60;52.10;;;;;;4984517;28;20938;-47
2022/03/10 11:27:24;;;;;;;37.77;23.43;;;19.90;50.30;;;;;;4958727;28;20640;-47
2022/03/10 11:29:55;;;;;;;38.77;25.03;;;19.90;49.80;;;;;;5000292;28;20562;-47
2022/03/10 11:32:27;;;;;;;37.90;25.17;;;20.10;51.90;;;;;;5029985;28;20468;-47
2022/03/10 11:34:56;;;;;;;30.13;19.90;;;20.00;43.80;;;;;;5033006;28;20755;-47
2022/03/10 11:37:36;;;;;;;29.20;17.97;;;20.10;48.50;;;;;;5027746;28;20537;-47
2022/03/10 11:40:05;;;;;;;36.07;18.00;;;19.30;42.40;;;;;;5043495;28;20475;-47
2022/03/10 11:42:34;;;;;;;28.90;19.77;;;18.80;41.10;;;;;;5041444;28;20515;-47
2022/03/10 11:45:10;;;;;;;27.90;19.80;;;18.30;42.20;;;;;;5038551;28;20476;-48
2022/03/10 11:47:37;;;;;;;19.60;11.27;;;18.20;42.80;;;;;;5038003;28;20479;-47
2022/03/10 11:50:27;;;;;;;27.37;17.53;;;17.90;41.10;;;;;;5041394;28;20514;-47
2022/03/10 11:52:59;;;;;;;38.70;20.67;;;17.70;41.50;;;;;;5043190;28;20482;-48
2022/03/10 11:55:39;;;;;;;29.90;15.60;;;17.80;44.20;;;;;;5040577;28;20578;-48
2022/03/10 11:58:08;;;;;;;27.33;19.27;;;18.10;43.30;;;;;;5040820;28;20575;-48
2022/03/10 12:00:48;;;;;;;32.57;21.97;;;18.20;43.00;;;;;;5040363;28;20507;-48
2022/03/10 12:03:29;;;;;;;29.90;20.50;;;18.10;42.90;;;;;;5044651;28;20484;-48
2022/03/10 12:05:57;;;;;;;25.13;18.40;;;18.10;43.10;;;;;;5030473;28;20472;-48
2022/03/10 12:08:26;;;;;;;29.90;18.93;;;17.80;42.20;;;;;;5038164;28;20483;-48
2022/03/10 12:10:53;;;;;;;26.00;18.83;;;17.70;42.80;;;;;;5039485;28;20547;-49
2022/03/10 12:13:28;;;;;;;29.80;18.67;;;17.60;43.00;;;;;;5040015;28;20545;-48
2022/03/10 12:15:55;;;;;;;46.27;21.10;;;17.40;41.70;;;;;;5034085;28;20475;-47
2022/03/10 12:18:24;;;;;;;29.40;18.40;;;17.60;42.70;;;;;;5050348;28;20471;-49
2022/03/10 12:20:54;;;;;;;30.83;19.77;;;17.60;41.90;;;;;;5037304;28;20564;-47
2022/03/10 12:23:25;;;;;;;30.30;18.83;;;17.60;43.10;;;;;;5042270;28;20997;-48
2022/03/10 12:25:54;;;;;;;29.30;18.30;;;18.10;45.30;;;;;;5023856;28;20463;-47
2022/03/10 12:28:31;;;;;;;27.07;17.50;;;18.70;43.10;;;;;;5043965;28;20554;-47
2022/03/10 12:31:04;;;;;;;30.63;17.37;;;18.80;44.10;;;;;;5027521;28;20490;-48
2022/03/10 12:33:31;;;;;;;25.00;14.70;;;19.50;45.40;;;;;;5028756;28;20537;-47
2022/03/10 12:36:00;;;;;;;27.13;15.33;;;19.50;45.80;;;;;;5041635;28;21215;-49
2022/03/10 12:38:37;;;;;;;27.13;17.97;;;19.70;44.10;;;;;;5036460;28;20502;-47
2022/03/10 12:41:05;;;;;;;26.20;15.23;;;19.60;40.70;;;;;;5041522;28;21348;-47